createdAt,value
2019-05-13T00:00:54.105Z,61.29
2019-05-13T00:03:24.444Z,62.11
2019-05-13T00:05:53.930Z,61.86
2019-05-13T00:08:24.870Z,62.19
2019-05-13T00:10:54.653Z,62.97
2019-05-13T00:13:24.099Z,62.72
2019-05-13T00:15:54.354Z,63.36
2019-05-13T00:18:25.013Z,63.39
2019-05-13T00:20:54.500Z,63.84
2019-05-13T00:23:24.037Z,64.53
2019-05-13T00:25:54.521Z,64.49
2019-05-13T00:28:24.230Z,65.14
2019-05-13T00:30:54.382Z,65.48
2019-05-13T00:33:24.500Z,65.25
2019-05-13T00:35:54.035Z,65.84
2019-05-13T00:38:24.538Z,65.67
2019-05-13T00:40:54.711Z,66.00
2019-05-13T00:43:25.307Z,66.53
2019-05-13T00:45:55.151Z,66.83
2019-05-13T00:48:24.646Z,66.86
2019-05-13T00:50:54.565Z,67.54
2019-05-13T00:53:24.118Z,67.41
2019-05-13T00:55:53.820Z,67.42
2019-05-13T00:58:24.211Z,67.78
2019-05-13T01:00:54.625Z,68.02
2019-05-13T01:03:27.852Z,68.52
2019-05-13T01:05:55.434Z,68.09
2019-05-13T01:08:25.926Z,68.03
2019-05-13T01:10:55.848Z,68.33
2019-05-13T01:13:25.655Z,68.48
2019-05-13T01:15:55.245Z,68.65
2019-05-13T01:18:24.699Z,68.57
2019-05-13T01:20:54.416Z,68.86
2019-05-13T01:23:24.198Z,69.15
2019-05-13T01:25:54.582Z,69.14
2019-05-13T01:28:24.438Z,69.35
2019-05-13T01:30:54.253Z,69.34
2019-05-13T01:33:24.764Z,69.43
2019-05-13T01:35:54.246Z,69.42
2019-05-13T01:38:24.272Z,69.56
2019-05-13T01:40:54.230Z,69.69
2019-05-13T01:43:24.447Z,69.97
2019-05-13T01:45:54.130Z,70.02
2019-05-13T01:48:24.063Z,70.13
2019-05-13T01:50:54.193Z,70.30
2019-05-13T01:53:24.515Z,70.41
2019-05-13T01:55:54.056Z,70.65
2019-05-13T01:58:23.980Z,70.66
2019-05-13T02:00:55.181Z,70.71
2019-05-13T02:03:24.889Z,70.88
2019-05-13T02:05:54.631Z,71.16
2019-05-13T02:08:24.655Z,71.24
2019-05-13T02:10:55.545Z,71.38
2019-05-13T02:13:45.817Z,71.57
2019-05-13T02:16:15.259Z,71.68
2019-05-13T02:18:44.849Z,71.80
2019-05-13T02:21:14.333Z,71.99
2019-05-13T02:23:44.250Z,72.15
2019-05-13T02:26:13.943Z,72.37
2019-05-13T02:28:43.729Z,72.58
2019-05-13T02:31:21.330Z,72.88
2019-05-13T02:33:44.895Z,73.14
2019-05-13T02:36:14.459Z,73.26
2019-05-13T02:38:44.090Z,73.84
2019-05-13T02:41:14.537Z,73.59
2019-05-13T02:43:45.698Z,73.77
2019-05-13T02:46:15.497Z,74.00
2019-05-13T02:48:45.004Z,74.07
2019-05-13T02:51:14.465Z,74.12
2019-05-13T02:53:43.975Z,74.39
2019-05-13T02:56:13.448Z,74.50
2019-05-13T02:58:43.128Z,74.57
2019-05-13T03:01:12.946Z,74.67
2019-05-13T03:03:44.411Z,74.74
2019-05-13T03:06:13.630Z,74.84
2019-05-13T03:08:49.479Z,74.82
2019-05-13T03:11:14.278Z,74.95
2019-05-13T03:13:43.747Z,75.14
2019-05-13T03:16:27.102Z,75.23
2019-05-13T03:18:56.684Z,75.40
2019-05-13T03:21:26.518Z,75.59
2019-05-13T03:23:56.038Z,75.61
2019-05-13T03:26:25.479Z,75.74
2019-05-13T03:28:54.966Z,75.82
2019-05-13T03:31:26.400Z,75.96
2019-05-13T03:33:56.705Z,76.16
2019-05-13T03:36:26.836Z,76.41
2019-05-13T03:39:05.644Z,76.52
2019-05-13T03:41:32.949Z,76.57
2019-05-13T03:44:06.770Z,76.65
2019-05-13T03:46:42.348Z,76.80
2019-05-13T03:49:13.737Z,77.43
2019-05-13T03:51:43.201Z,77.54
2019-05-13T03:54:13.127Z,77.48
2019-05-13T03:56:42.933Z,77.60
2019-05-13T03:59:13.468Z,77.69
2019-05-13T04:01:43.687Z,78.00
2019-05-13T04:04:13.183Z,78.31
2019-05-13T04:06:43.052Z,78.06
2019-05-13T04:09:26.210Z,78.37
2019-05-13T04:11:45.616Z,78.20
2019-05-13T04:14:16.344Z,78.13
2019-05-13T04:16:45.859Z,78.30
2019-05-13T04:19:16.464Z,78.13
2019-05-13T04:21:45.971Z,78.03
2019-05-13T04:24:16.115Z,78.40
2019-05-13T04:26:45.700Z,78.12
2019-05-13T04:29:15.327Z,78.04
2019-05-13T04:31:44.838Z,77.91
2019-05-13T04:34:14.331Z,77.70
2019-05-13T04:36:43.787Z,77.59
2019-05-13T04:39:14.255Z,77.62
2019-05-13T04:41:43.751Z,77.58
2019-05-13T04:44:13.387Z,77.49
2019-05-13T04:46:43.665Z,77.46
2019-05-13T04:49:13.368Z,77.37
2019-05-13T04:51:43.000Z,77.45
2019-05-13T04:54:13.143Z,77.28
2019-05-13T04:56:43.017Z,77.28
2019-05-13T04:59:12.994Z,77.21
2019-05-13T05:02:14.442Z,76.97
2019-05-13T05:04:55.934Z,76.81
2019-05-13T05:07:48.107Z,76.67
2019-05-13T05:10:38.757Z,76.67
2019-05-13T05:13:24.264Z,76.35
2019-05-13T05:16:28.560Z,76.15
2019-05-13T05:19:12.098Z,76.01
2019-05-13T05:21:46.539Z,75.83
2019-05-13T05:24:22.282Z,75.75
2019-05-13T05:27:14.402Z,75.67
2019-05-13T05:29:46.936Z,75.37
2019-05-13T05:32:45.361Z,75.29
2019-05-13T05:35:45.095Z,75.12
2019-05-13T05:38:38.153Z,74.89
2019-05-13T05:41:12.107Z,74.81
2019-05-13T05:43:45.412Z,74.74
2019-05-13T05:46:16.234Z,74.50
2019-05-13T05:48:50.711Z,74.40
2019-05-13T05:51:22.178Z,74.24
2019-05-13T05:53:53.346Z,74.21
2019-05-13T05:56:23.683Z,74.06
2019-05-13T05:58:54.707Z,73.82
2019-05-13T06:01:24.937Z,73.70
2019-05-13T06:03:56.778Z,73.42
2019-05-13T06:06:28.825Z,73.52
2019-05-13T06:09:01.738Z,73.20
2019-05-13T06:11:33.381Z,73.05
2019-05-13T06:14:03.086Z,73.08
2019-05-13T06:16:33.228Z,72.19
2019-05-13T06:19:02.747Z,72.14
2019-05-13T06:21:32.278Z,72.09
2019-05-13T06:24:02.746Z,72.00
2019-05-13T06:26:32.518Z,71.58
2019-05-13T06:29:02.713Z,71.34
2019-05-13T06:31:32.727Z,71.37
2019-05-13T06:34:02.274Z,70.68
2019-05-13T06:36:31.909Z,70.68
2019-05-13T06:39:02.333Z,70.24
2019-05-13T06:41:32.515Z,70.42
2019-05-13T06:44:02.674Z,70.02
2019-05-13T06:46:32.473Z,69.54
2019-05-13T06:49:03.168Z,69.55
2019-05-13T06:51:32.720Z,69.40
2019-05-13T06:54:02.518Z,68.22
2019-05-13T06:56:33.654Z,68.24
2019-05-13T06:59:03.180Z,68.24
2019-05-13T07:01:32.691Z,67.31
2019-05-13T07:04:05.802Z,67.33
2019-05-13T07:06:35.666Z,66.96
2019-05-13T07:09:07.106Z,66.79
2019-05-13T07:11:36.650Z,66.68
2019-05-13T07:14:06.735Z,66.00
2019-05-13T07:16:36.575Z,65.92
2019-05-13T07:19:06.461Z,65.85
2019-05-13T07:21:35.920Z,65.87
2019-05-13T07:24:05.484Z,65.42
2019-05-13T07:26:34.919Z,65.45
2019-05-13T07:29:05.096Z,65.75
2019-05-13T07:31:35.215Z,65.69
2019-05-13T07:34:04.901Z,64.70
2019-05-13T07:36:34.920Z,64.96
2019-05-13T07:39:07.821Z,65.25
2019-05-13T07:41:39.746Z,65.19
2019-05-13T07:44:08.863Z,64.39
2019-05-13T07:46:38.316Z,63.96
2019-05-13T07:49:07.896Z,63.66
2019-05-13T07:51:37.352Z,62.95
2019-05-13T07:54:06.923Z,62.12
2019-05-13T07:56:36.411Z,61.94
2019-05-13T07:59:05.956Z,62.02
2019-05-13T08:01:35.474Z,62.42
2019-05-13T08:04:05.232Z,62.69
2019-05-13T08:06:35.075Z,61.82
2019-05-13T08:09:08.186Z,61.70
2019-05-13T08:11:56.189Z,60.93
2019-05-13T08:14:08.926Z,60.53
2019-05-13T08:16:38.367Z,59.59
2019-05-13T08:19:07.930Z,60.02
2019-05-13T08:21:37.401Z,58.37
2019-05-13T08:24:07.253Z,59.00
2019-05-13T08:26:38.155Z,57.64
2019-05-13T08:29:08.245Z,58.04
2019-05-13T08:31:38.198Z,57.79
2019-05-13T08:34:11.550Z,56.92
2019-05-13T08:36:42.674Z,56.50
2019-05-13T08:39:12.733Z,56.33
2019-05-13T08:41:42.611Z,56.02
2019-05-13T08:44:12.565Z,55.12
2019-05-13T08:46:42.151Z,55.23
2019-05-13T08:49:12.081Z,55.16
2019-05-13T08:51:42.384Z,54.94
2019-05-13T08:54:12.135Z,54.53
2019-05-13T08:56:41.898Z,53.94
2019-05-13T08:59:11.923Z,54.19
2019-05-13T09:01:42.756Z,54.48
2019-05-13T09:04:12.575Z,53.96
2019-05-13T09:06:42.468Z,53.73
2019-05-13T09:09:12.122Z,52.46
2019-05-13T09:11:42.264Z,51.82
2019-05-13T09:14:13.381Z,51.87
2019-05-13T09:16:42.823Z,52.25
2019-05-13T09:21:43.488Z,51.14
2019-05-13T09:24:25.395Z,48.88
2019-05-13T09:26:44.336Z,50.10
2019-05-13T09:29:13.928Z,49.70
2019-05-13T09:31:43.429Z,50.15
2019-05-13T09:34:12.985Z,49.56
2019-05-13T09:36:42.816Z,48.57
2019-05-13T09:39:12.740Z,48.07
2019-05-13T09:41:44.561Z,48.31
2019-05-13T09:44:13.843Z,46.85
2019-05-13T09:46:43.705Z,47.84
2019-05-13T09:49:19.710Z,46.93
2019-05-13T09:51:44.677Z,46.79
2019-05-13T09:54:14.263Z,46.33
2019-05-13T09:56:43.909Z,46.58
2019-05-13T09:59:13.694Z,46.04
2019-05-13T10:01:43.190Z,46.09
2019-05-13T10:04:12.806Z,46.35
2019-05-13T10:06:42.360Z,45.81
2019-05-13T10:09:12.746Z,45.79
2019-05-13T10:11:42.336Z,44.35
2019-05-13T10:14:11.954Z,43.42
2019-05-13T10:16:42.774Z,42.85
2019-05-13T10:19:12.913Z,41.06
2019-05-13T10:21:43.062Z,41.99
2019-05-13T10:24:12.994Z,41.83
2019-05-13T10:26:43.341Z,41.29
2019-05-13T10:29:14.869Z,41.11
2019-05-13T10:31:44.664Z,42.26
2019-05-13T10:34:14.373Z,40.39
2019-05-13T10:36:44.281Z,39.62
2019-05-13T10:39:14.115Z,38.97
2019-05-13T10:41:43.642Z,39.45
2019-05-13T10:44:13.222Z,38.60
2019-05-13T10:46:43.023Z,39.50
2019-05-13T10:49:12.971Z,38.97
2019-05-13T10:51:42.449Z,37.92
2019-05-13T10:54:12.073Z,38.41
2019-05-13T10:56:42.970Z,37.45
2019-05-13T10:59:12.921Z,38.22
2019-05-13T11:01:42.875Z,38.08
2019-05-13T11:04:13.648Z,38.20
2019-05-13T11:06:43.526Z,38.13
2019-05-13T11:09:13.370Z,37.33
2019-05-13T11:11:42.842Z,37.07
2019-05-13T11:14:15.495Z,37.14
2019-05-13T11:16:43.474Z,35.28
2019-05-13T11:19:13.104Z,35.73
2019-05-13T11:21:44.160Z,35.95
2019-05-13T11:24:13.838Z,35.12
2019-05-13T11:26:43.484Z,35.82
2019-05-13T11:29:12.926Z,35.73
2019-05-13T11:31:43.064Z,36.55
2019-05-13T11:34:12.749Z,36.37
2019-05-13T11:36:43.409Z,35.83
2019-05-13T11:39:13.306Z,35.82
2019-05-13T11:41:43.038Z,34.51
2019-05-13T11:44:16.614Z,35.56
2019-05-13T11:46:43.769Z,35.94
2019-05-13T11:49:13.466Z,35.95
2019-05-13T11:51:43.446Z,35.80
2019-05-13T11:54:13.837Z,34.84
2019-05-13T11:56:49.310Z,34.32
2019-05-13T11:59:15.034Z,33.96
2019-05-13T12:01:44.571Z,33.76
2019-05-13T12:04:14.069Z,33.76
2019-05-13T12:06:48.838Z,34.33
2019-05-13T12:09:15.097Z,34.40
2019-05-13T12:11:46.001Z,34.25
2019-05-13T12:14:41.000Z,34.49
2019-05-13T12:16:47.745Z,34.06
2019-05-13T12:19:17.500Z,34.25
2019-05-13T12:21:47.127Z,33.73
2019-05-13T12:24:16.757Z,33.73
2019-05-13T12:26:46.218Z,33.69
2019-05-13T12:29:19.185Z,34.02
2019-05-13T12:31:46.829Z,33.26
2019-05-13T12:34:17.914Z,32.79
2019-05-13T12:36:47.717Z,31.54
2019-05-13T12:39:17.540Z,31.56
2019-05-13T12:41:47.124Z,30.88
2019-05-13T12:44:16.636Z,31.23
2019-05-13T12:46:50.229Z,31.99
2019-05-13T12:49:17.435Z,32.08
2019-05-13T12:51:47.231Z,31.99
2019-05-13T12:54:16.725Z,32.24
2019-05-13T12:56:46.219Z,32.07
2019-05-13T12:59:16.890Z,31.47
2019-05-13T13:01:46.499Z,29.95
2019-05-13T13:04:16.054Z,28.71
2019-05-13T13:06:53.973Z,29.21
2019-05-13T13:09:33.531Z,30.86
2019-05-13T13:12:01.501Z,31.22
2019-05-13T13:14:39.052Z,30.85
2019-05-13T13:17:04.237Z,30.59
2019-05-13T13:19:34.697Z,29.93
2019-05-13T13:22:07.996Z,29.94
2019-05-13T13:24:35.437Z,30.79
2019-05-13T13:27:05.158Z,30.12
2019-05-13T13:29:34.653Z,29.61
2019-05-13T13:32:04.657Z,30.01
2019-05-13T13:34:34.123Z,28.99
2019-05-13T13:37:05.278Z,29.85
2019-05-13T13:39:35.435Z,29.25
2019-05-13T13:42:05.941Z,29.19
2019-05-13T13:44:35.593Z,28.35
2019-05-13T13:47:05.114Z,28.27
2019-05-13T13:49:35.289Z,26.59
2019-05-13T13:52:05.048Z,27.85
2019-05-13T13:54:34.946Z,27.06
2019-05-13T13:57:04.526Z,26.79
2019-05-13T13:59:35.884Z,27.15
2019-05-13T14:02:05.849Z,27.80
2019-05-13T14:04:35.432Z,27.16
2019-05-13T14:06:25.158Z,51.00
2019-05-13T14:07:22.548Z,26.97
2019-05-13T14:09:36.206Z,26.73
2019-05-13T14:12:05.755Z,26.79
2019-05-13T14:14:37.262Z,26.49
2019-05-13T14:17:06.824Z,26.17
2019-05-13T14:19:36.332Z,24.95
2019-05-13T14:22:05.842Z,25.54
2019-05-13T14:24:35.277Z,25.24
2019-05-13T14:27:05.077Z,26.21
2019-05-13T14:29:40.613Z,25.48
2019-05-13T14:32:06.160Z,25.71
2019-05-13T14:34:35.658Z,25.27
2019-05-13T14:37:05.226Z,24.45
2019-05-13T14:39:36.236Z,24.75
2019-05-13T14:42:06.006Z,25.35
2019-05-13T14:44:36.931Z,25.46
2019-05-13T14:47:06.414Z,24.25
2019-05-13T14:49:35.865Z,25.07
2019-05-13T14:52:05.563Z,24.41
2019-05-13T14:54:35.074Z,24.96
2019-05-13T14:57:04.666Z,25.53
2019-05-13T14:59:34.150Z,25.17
2019-05-13T15:02:03.609Z,25.07
2019-05-13T15:04:33.197Z,25.31
2019-05-13T15:07:02.678Z,25.36
2019-05-13T15:09:32.921Z,24.77
2019-05-13T15:12:02.547Z,24.29
2019-05-13T15:14:32.093Z,23.76
2019-05-13T15:17:06.276Z,24.12
2019-05-13T15:19:33.188Z,24.32
2019-05-13T15:22:02.871Z,24.44
2019-05-13T15:24:32.744Z,24.57
2019-05-13T15:27:02.530Z,25.39
2019-05-13T15:29:32.121Z,25.13
2019-05-13T15:32:02.234Z,25.59
2019-05-13T15:34:32.584Z,25.78
2019-05-13T15:37:02.349Z,25.47
2019-05-13T15:39:32.075Z,25.36
2019-05-13T15:42:02.278Z,24.95
2019-05-13T15:44:32.833Z,25.07
2019-05-13T15:47:18.235Z,25.30
2019-05-13T15:49:33.650Z,25.85
2019-05-13T15:52:03.104Z,25.51
2019-05-13T15:54:33.663Z,25.47
2019-05-13T15:57:03.266Z,25.71
2019-05-13T15:59:32.971Z,25.54
2019-05-13T16:02:02.603Z,26.00
2019-05-13T16:04:32.661Z,25.43
2019-05-13T16:07:02.100Z,25.52
2019-05-13T16:09:32.577Z,25.70
2019-05-13T16:12:02.187Z,25.99
2019-05-13T16:14:31.835Z,26.14
2019-05-13T16:17:01.313Z,25.42
2019-05-13T16:19:32.618Z,25.12
2019-05-13T16:22:02.656Z,25.49
2019-05-13T16:24:32.357Z,25.49
2019-05-13T16:27:03.233Z,25.22
2019-05-13T16:29:33.765Z,25.34
2019-05-13T16:32:03.530Z,25.71
2019-05-13T16:34:33.289Z,25.64
2019-05-13T16:37:02.915Z,25.55
2019-05-13T16:39:32.555Z,25.09
2019-05-13T16:42:02.072Z,25.55
2019-05-13T16:44:32.021Z,26.15
2019-05-13T16:47:02.232Z,25.87
2019-05-13T16:49:32.086Z,25.77
2019-05-13T16:52:02.585Z,25.70
2019-05-13T16:54:33.088Z,25.11
2019-05-13T16:57:02.691Z,24.93
2019-05-13T16:59:32.250Z,23.89
2019-05-13T17:02:02.815Z,24.13
2019-05-13T17:04:32.377Z,23.51
2019-05-13T17:07:01.948Z,22.15
2019-05-13T17:09:32.294Z,21.60
2019-05-13T17:12:02.220Z,19.93
2019-05-13T17:14:32.230Z,19.42
2019-05-13T17:17:01.922Z,18.71
2019-05-13T17:19:31.910Z,18.38
2019-05-13T17:22:02.501Z,17.70
2019-05-13T17:24:32.319Z,19.83
2019-05-13T17:27:02.804Z,21.29
2019-05-13T17:29:33.955Z,22.92
2019-05-13T17:32:03.595Z,24.01
2019-05-13T17:34:33.063Z,24.61
2019-05-13T17:37:03.419Z,25.41
2019-05-13T17:39:32.875Z,26.36
2019-05-13T17:42:02.867Z,27.05
2019-05-13T17:44:32.742Z,28.01
2019-05-13T17:47:02.309Z,28.44
2019-05-13T17:49:32.157Z,29.30
2019-05-13T17:52:02.528Z,29.81
2019-05-13T17:54:33.389Z,30.44
2019-05-13T17:57:03.028Z,30.73
2019-05-13T17:59:33.522Z,30.98
2019-05-13T18:02:03.177Z,31.15
2019-05-13T18:04:32.700Z,31.36
2019-05-13T18:07:02.289Z,32.00
2019-05-13T18:09:32.912Z,32.14
2019-05-13T18:12:02.638Z,32.71
2019-05-13T18:14:33.131Z,33.06
2019-05-13T18:17:02.640Z,33.57
2019-05-13T18:19:32.089Z,34.19
2019-05-13T18:22:02.387Z,34.74
2019-05-13T18:24:32.260Z,34.70
2019-05-13T18:27:01.832Z,35.26
2019-05-13T18:29:31.749Z,35.65
2019-05-13T18:32:02.452Z,35.57
2019-05-13T18:34:32.336Z,36.20
2019-05-13T18:37:02.960Z,36.53
2019-05-13T18:39:32.566Z,37.19
2019-05-13T18:42:02.485Z,37.36
2019-05-13T18:44:32.057Z,37.37
2019-05-13T18:47:01.807Z,38.07
2019-05-13T18:49:31.990Z,38.08
2019-05-13T18:52:01.563Z,38.59
2019-05-13T18:54:31.700Z,38.99
2019-05-13T18:57:01.869Z,39.23
2019-05-13T18:59:32.917Z,39.41
2019-05-13T19:02:02.415Z,39.34
2019-05-13T19:04:32.029Z,39.63
2019-05-13T19:07:02.517Z,39.61
2019-05-13T19:09:32.116Z,39.63
2019-05-13T19:12:01.700Z,39.63
2019-05-13T19:14:31.760Z,39.86
2019-05-13T19:17:01.797Z,39.88
2019-05-13T19:19:31.797Z,40.01
2019-05-13T19:22:02.171Z,40.35
2019-05-13T19:24:32.872Z,40.50
2019-05-13T19:27:02.379Z,40.70
2019-05-13T19:29:32.070Z,40.97
2019-05-13T19:32:01.996Z,42.30
2019-05-13T19:34:32.423Z,41.88
2019-05-13T19:37:02.698Z,42.03
2019-05-13T19:39:32.315Z,42.94
2019-05-13T19:42:01.862Z,43.87
2019-05-13T19:44:31.898Z,44.28
2019-05-13T19:47:02.093Z,45.34
2019-05-13T19:49:36.851Z,46.57
2019-05-13T19:52:03.438Z,46.44
2019-05-13T19:54:33.179Z,47.09
2019-05-13T19:57:03.213Z,47.29
2019-05-13T19:59:32.694Z,47.70
2019-05-13T20:02:02.265Z,48.09
2019-05-13T20:04:31.977Z,48.91
2019-05-13T20:07:01.531Z,48.66
2019-05-13T20:09:32.202Z,48.58
2019-05-13T20:12:02.187Z,48.95
2019-05-13T20:14:31.960Z,49.33
2019-05-13T20:17:01.709Z,49.64
2019-05-13T20:19:46.034Z,50.17
2019-05-13T20:22:02.591Z,51.39
2019-05-13T20:24:32.132Z,51.52
2019-05-13T20:27:01.778Z,51.89
2019-05-13T20:29:31.437Z,51.63
2019-05-13T20:32:01.473Z,51.58
2019-05-13T20:34:31.848Z,52.09
2019-05-13T20:37:02.206Z,53.30
2019-05-13T20:39:32.187Z,53.75
2019-05-13T20:42:02.115Z,53.25
2019-05-13T20:44:31.686Z,53.14
2019-05-13T20:47:01.707Z,53.13
2019-05-13T20:49:31.490Z,53.83
2019-05-13T20:52:01.474Z,54.46
2019-05-13T20:54:31.585Z,54.63
2019-05-13T20:57:01.966Z,54.79
2019-05-13T20:59:32.325Z,55.05
2019-05-13T21:02:02.480Z,55.35
2019-05-13T21:04:32.435Z,55.76
2019-05-13T21:07:02.294Z,56.85
2019-05-13T21:09:33.024Z,56.48
2019-05-13T21:12:02.853Z,56.64
2019-05-13T21:14:33.369Z,57.16
2019-05-13T21:17:02.947Z,57.46
2019-05-13T21:19:39.412Z,57.69
2019-05-13T21:22:03.641Z,58.01
2019-05-13T21:24:33.084Z,59.41
2019-05-13T21:27:02.565Z,58.07
2019-05-13T21:29:32.438Z,58.21
2019-05-13T21:32:02.048Z,59.14
2019-05-13T21:34:31.752Z,59.11
2019-05-13T21:37:02.536Z,59.94
2019-05-13T21:39:32.208Z,59.82
2019-05-13T21:42:02.376Z,60.12
2019-05-13T21:44:32.805Z,60.73
2019-05-13T21:47:03.407Z,61.47
2019-05-13T21:49:33.150Z,61.09
2019-05-13T21:52:02.638Z,61.48
2019-05-13T21:54:33.592Z,62.43
2019-05-13T21:57:03.207Z,62.17
2019-05-13T21:59:32.688Z,62.70
2019-05-13T22:02:02.779Z,63.07
2019-05-13T22:04:32.636Z,62.97
2019-05-13T22:07:02.121Z,63.18
2019-05-13T22:09:32.018Z,64.58
2019-05-13T22:12:02.048Z,64.26
2019-05-13T22:14:32.158Z,64.77
2019-05-13T22:17:02.105Z,64.21
2019-05-13T22:19:32.023Z,64.14
2019-05-13T22:22:02.568Z,64.72
2019-05-13T22:24:32.364Z,64.75
2019-05-13T22:27:02.179Z,65.33
2019-05-13T22:29:32.333Z,66.14
2019-05-13T22:32:02.284Z,65.24
2019-05-13T22:34:32.150Z,65.14
2019-05-13T22:37:02.569Z,65.74
2019-05-13T22:39:34.589Z,65.25
2019-05-13T22:42:03.445Z,66.20
2019-05-13T22:44:33.571Z,66.14
2019-05-13T22:47:04.235Z,67.19
2019-05-13T22:49:33.740Z,66.50
2019-05-13T22:52:03.245Z,67.13
2019-05-13T22:54:32.697Z,67.74
2019-05-13T22:57:02.201Z,67.89
2019-05-13T22:59:32.261Z,67.84
2019-05-13T23:02:01.968Z,68.20
2019-05-13T23:04:31.626Z,68.46
2019-05-13T23:07:02.039Z,67.76
2019-05-13T23:09:32.277Z,68.19
2019-05-13T23:12:02.319Z,68.79
2019-05-13T23:14:31.761Z,68.54
2019-05-13T23:17:02.223Z,68.35
2019-05-13T23:19:32.532Z,68.25
2019-05-13T23:22:01.990Z,68.46
2019-05-13T23:24:31.555Z,68.70
2019-05-13T23:27:02.185Z,68.53
2019-05-13T23:29:32.086Z,68.54
2019-05-13T23:32:01.675Z,68.52
2019-05-13T23:34:31.789Z,68.46
2019-05-13T23:37:02.442Z,68.49
2019-05-13T23:39:32.265Z,68.46
2019-05-13T23:42:01.840Z,68.57
2019-05-13T23:44:32.229Z,68.66
2019-05-13T23:47:01.851Z,68.63
2019-05-13T23:49:31.849Z,68.80
2019-05-13T23:52:02.513Z,68.86
2019-05-13T23:54:32.257Z,68.97
2019-05-13T23:57:01.706Z,69.15
2019-05-13T23:59:31.533Z,69.20
